Mobridge, SD

5:05 PM CDT on August 20, 2014 (GMT -0500)
NCSD Skywarn | Change Station
CLOSE
Current Station
Personal Weather Station
Location: Mobridge, SD
Elevation: 1677 ft
Nearby Weather Stations
Active Advisory: Severe Thunderstorm Watch

Elev 1677 ft 45.54 °N, 100.44 °W | Updated 2 seconds ago

Mostly Cloudy
Mostly Cloudy
82.9 °F
Feels Like 87 °F
N
7.6
Wind Variable Wind from SSW
Gusts 13.0 mph

Today
High -- | Low -- °F
--% Chance of Precip.
Yesterday
High -- | Low -- °F
Precip. -- in
6:48 AM 8:40 PM
Waning Crescent, 19% visible
Pressure 29.63 in
Visibility 10.0 miles
Clouds Mostly Cloudy 12000 ft
Heat Index 87 °F
Dew Point 70 °F
Humidity 65%
Rainfall 0.00 in
Snow Depth Not available.
UV 0.0 out of 12
Pollen 7.70 out of 12
Air Quality Not available.
Flu Activity Not available.
METAR KMBG 202152Z AUTO 14012KT 10SM BKN120 27/21 A2966 RMK AO2 SLP032 T02720211

More Conditions Fewer Conditions

Pressure 29.63 in
Visibility 10.0 miles
Clouds Mostly Cloudy 12000 ft
Heat Index 87 °F
Dew Point 70 °F
Humidity 65%
Rainfall 0.00 in
Snow Depth Not available.
UV 0.0 out of 12
Pollen 7.70 out of 12
Air Quality Not available.
Flu Activity Not available.
METAR KMBG 202152Z AUTO 14012KT 10SM BKN120 27/21 A2966 RMK AO2 SLP032 T02720211

More Conditions Fewer Conditions

10-Day Weather Forecast

Almanac

Astronomy

Aug. 20, 2014 Rise Set
Actual Time 6:48 AM CDT 8:40 PM CDT
Civil Twilight 6:16 AM CDT 9:12 PM CDT
Nautical Twilight 5:37 AM CDT 9:51 PM CDT
Astronomical Twilight 4:55 AM CDT 10:33 PM CDT
Moon 2:24 AM CDT 5:32 PM CDT
Length of Visible Light 14h 55m
Length of Day
13h 52m
Tomorrow will be 2m 56s shorter.
Waning Crescent, 19% of the Moon is Illuminated
Today
Waning Crescent
Aug 25
New
Sep 2
First Quarter
Sep 8
Full
Sep 15
Last Quarter

Today's Extremes

State Highs State Lows

Community

WunderPhotos

Upload Photos

1,745,773 photos uploaded!

Nearby

Snow Depth

Station Depth Elevation
Blind Park 0 in 6890 ft

Earthquake Activity

City Distance Mag. Time & Date
No recent earthquake activity has been reported nearby.
Minimum magnitude displayed is 2.5.

Coastal Water Temperatures

Place Temperature
No Stations Reporting

Nearby Weather Stations